createdAt,value
2023-01-01T00:00:49.704Z,15.51
2023-01-01T00:03:37.553Z,15.52
2023-01-01T00:06:13.969Z,15.52
2023-01-01T00:08:41.309Z,15.57
2023-01-01T00:11:10.401Z,15.58
2023-01-01T00:13:41.416Z,15.57
2023-01-01T00:16:14.552Z,15.55
2023-01-01T00:18:42.339Z,15.54
2023-01-01T00:21:14.604Z,15.52
2023-01-01T00:23:42.028Z,15.52
2023-01-01T00:26:18.055Z,15.51
2023-01-01T00:28:47.837Z,15.51
2023-01-01T00:31:21.560Z,15.50
2023-01-01T00:33:55.401Z,15.51
2023-01-01T00:36:25.155Z,15.50
2023-01-01T00:38:53.098Z,15.49
2023-01-01T00:41:21.363Z,15.49
2023-01-01T00:43:48.779Z,15.49
2023-01-01T00:46:16.382Z,15.48
2023-01-01T00:48:43.819Z,15.47
2023-01-01T00:51:12.261Z,15.47
2023-01-01T00:53:39.745Z,15.44
2023-01-01T00:56:07.438Z,15.43
2023-01-01T00:58:34.756Z,15.44
2023-01-01T01:01:02.322Z,15.43
2023-01-01T01:03:30.328Z,15.43
2023-01-01T01:06:04.012Z,15.43
2023-01-01T01:08:34.968Z,15.43
2023-01-01T01:11:14.404Z,15.44
2023-01-01T01:13:45.672Z,15.43
2023-01-01T01:16:35.530Z,15.44
2023-01-01T01:19:05.457Z,15.42
2023-01-01T01:21:34.754Z,15.41
2023-01-01T01:24:04.161Z,15.39
2023-01-01T01:26:34.033Z,15.39
2023-01-01T01:29:01.808Z,15.38
2023-01-01T01:31:32.541Z,15.35
2023-01-01T01:33:59.936Z,15.35
2023-01-01T01:36:28.638Z,15.34
2023-01-01T01:38:56.788Z,15.33
2023-01-01T01:41:28.781Z,15.31
2023-01-01T01:44:04.570Z,15.31
2023-01-01T01:46:44.746Z,15.31
2023-01-01T01:49:29.913Z,15.30
2023-01-01T01:51:59.144Z,15.30
2023-01-01T01:54:29.641Z,15.28
2023-01-01T01:57:08.183Z,15.28
2023-01-01T01:59:47.088Z,15.28
2023-01-01T02:02:32.649Z,15.28
2023-01-01T02:05:00.267Z,15.26
2023-01-01T02:07:31.775Z,15.23
2023-01-01T02:10:01.508Z,15.24
2023-01-01T02:12:28.799Z,15.21
2023-01-01T02:14:56.241Z,15.20
2023-01-01T02:17:40.914Z,15.17
2023-01-01T02:20:30.255Z,15.17
2023-01-01T02:23:21.365Z,15.15
2023-01-01T02:26:08.888Z,15.14
2023-01-01T02:28:54.965Z,15.17
2023-01-01T02:31:32.582Z,15.15
2023-01-01T02:34:11.659Z,15.17
2023-01-01T02:36:48.684Z,15.15
2023-01-01T02:39:21.063Z,15.08
2023-01-01T02:41:54.858Z,15.11
2023-01-01T02:44:26.233Z,15.07
2023-01-01T02:46:53.546Z,15.04
2023-01-01T02:49:20.563Z,15.00
2023-01-01T02:52:16.728Z,15.00
2023-01-01T02:55:04.728Z,14.98
2023-01-01T02:57:41.062Z,14.96
2023-01-01T03:00:24.469Z,14.95
2023-01-01T03:03:19.922Z,14.94
2023-01-01T03:06:23.096Z,14.90
2023-01-01T03:09:32.870Z,14.89
2023-01-01T03:12:22.919Z,14.86
2023-01-01T03:15:03.409Z,14.84
2023-01-01T03:17:41.825Z,14.81
2023-01-01T03:20:22.142Z,14.80
2023-01-01T03:22:53.764Z,14.81
2023-01-01T03:25:28.347Z,14.83
2023-01-01T03:28:12.604Z,14.84
2023-01-01T03:30:44.744Z,14.84
2023-01-01T03:33:28.200Z,14.82
2023-01-01T03:36:07.008Z,14.82
2023-01-01T03:38:49.383Z,14.83
2023-01-01T03:41:45.447Z,14.82
2023-01-01T03:44:20.404Z,14.83
2023-01-01T03:46:48.551Z,14.84
2023-01-01T03:49:16.933Z,14.83
2023-01-01T03:52:20.646Z,14.81
2023-01-01T03:55:05.508Z,14.83
2023-01-01T03:58:02.551Z,14.83
2023-01-01T04:00:50.339Z,14.81
2023-01-01T04:03:24.341Z,14.81
2023-01-01T04:05:51.893Z,14.82
2023-01-01T04:08:19.927Z,14.84
2023-01-01T04:10:55.839Z,14.86
2023-01-01T04:13:23.401Z,14.83
2023-01-01T04:15:51.157Z,14.82
2023-01-01T04:18:18.440Z,14.86
2023-01-01T04:20:45.382Z,14.83
2023-01-01T04:23:12.600Z,14.84
2023-01-01T04:25:39.504Z,14.81
2023-01-01T04:28:06.654Z,14.84
2023-01-01T04:33:00.687Z,14.81
2023-01-01T04:35:27.650Z,14.81
2023-01-01T04:37:54.820Z,14.80
2023-01-01T04:40:21.851Z,14.79
2023-01-01T04:42:49.079Z,14.79
2023-01-01T04:45:16.219Z,14.78
2023-01-01T04:47:43.514Z,14.75
2023-01-01T04:50:11.043Z,14.75
2023-01-01T04:52:38.256Z,14.73
2023-01-01T04:55:06.157Z,14.71
2023-01-01T04:57:33.364Z,14.68
2023-01-01T05:00:00.323Z,14.70
2023-01-01T05:02:27.781Z,14.69
2023-01-01T05:04:55.107Z,14.68
2023-01-01T05:07:22.424Z,14.67
2023-01-01T05:09:49.538Z,14.68
2023-01-01T05:12:16.719Z,14.67
2023-01-01T05:14:43.773Z,14.69
2023-01-01T05:17:10.955Z,14.69
2023-01-01T05:19:37.936Z,14.68
2023-01-01T05:22:10.364Z,14.68
2023-01-01T05:24:38.021Z,14.67
2023-01-01T05:27:05.390Z,14.64
2023-01-01T05:29:32.305Z,14.62
2023-01-01T05:31:59.570Z,14.59
2023-01-01T05:36:56.027Z,14.56
2023-01-01T05:39:23.026Z,14.55
2023-01-01T05:41:51.546Z,14.56
2023-01-01T05:44:19.449Z,14.54
2023-01-01T05:46:46.775Z,14.52
2023-01-01T05:49:13.890Z,14.47
2023-01-01T05:54:07.172Z,14.44
2023-01-01T05:56:34.440Z,14.41
2023-01-01T05:59:01.768Z,14.39
2023-01-01T06:01:31.353Z,14.37
2023-01-01T06:04:00.525Z,14.32
2023-01-01T06:06:33.220Z,14.33
2023-01-01T06:09:05.525Z,14.31
2023-01-01T06:11:33.404Z,14.28
2023-01-01T06:14:01.657Z,14.22
2023-01-01T06:16:30.977Z,14.21
2023-01-01T06:18:58.909Z,14.21
2023-01-01T06:21:28.782Z,14.19
2023-01-01T06:23:58.358Z,14.18
2023-01-01T06:26:30.546Z,14.16
2023-01-01T06:28:58.669Z,14.13
2023-01-01T06:31:27.804Z,14.11
2023-01-01T06:33:55.346Z,14.08
2023-01-01T06:36:25.467Z,14.06
2023-01-01T06:38:58.581Z,14.06
2023-01-01T06:41:28.028Z,14.07
2023-01-01T06:43:57.306Z,14.04
2023-01-01T06:46:31.449Z,14.00
2023-01-01T06:49:06.128Z,13.95
2023-01-01T06:51:39.094Z,13.89
2023-01-01T06:54:07.699Z,13.87
2023-01-01T06:56:35.659Z,13.88
2023-01-01T06:59:03.213Z,13.87
2023-01-01T07:01:33.407Z,13.85
2023-01-01T07:04:04.368Z,13.82
2023-01-01T07:06:34.178Z,13.79
2023-01-01T07:09:02.312Z,13.76
2023-01-01T07:11:30.381Z,13.74
2023-01-01T07:13:57.297Z,13.74
2023-01-01T07:16:25.503Z,13.75
2023-01-01T07:18:52.924Z,13.75
2023-01-01T07:21:40.630Z,13.72
2023-01-01T07:24:12.723Z,13.74
2023-01-01T07:26:41.309Z,13.73
2023-01-01T07:29:08.918Z,13.72
2023-01-01T07:31:38.996Z,13.72
2023-01-01T07:34:09.562Z,13.71
2023-01-01T07:36:36.831Z,13.70
2023-01-01T07:39:03.908Z,13.72
2023-01-01T07:41:31.109Z,13.73
2023-01-01T07:43:58.102Z,13.75
2023-01-01T07:46:25.526Z,13.78
2023-01-01T07:48:52.757Z,13.82
2023-01-01T07:51:20.162Z,13.87
2023-01-01T07:53:47.066Z,13.89
2023-01-01T07:56:14.333Z,13.93
2023-01-01T07:58:42.330Z,13.96
2023-01-01T08:01:14.985Z,14.02
2023-01-01T08:03:42.868Z,14.06
2023-01-01T08:06:12.905Z,14.11
2023-01-01T08:08:41.240Z,14.16
2023-01-01T08:11:09.339Z,14.23
2023-01-01T08:13:36.497Z,14.26
2023-01-01T08:16:04.252Z,14.29
2023-01-01T08:18:31.320Z,14.32
2023-01-01T08:20:58.623Z,14.37
2023-01-01T08:23:25.553Z,14.39
2023-01-01T08:25:52.837Z,14.43
2023-01-01T08:28:20.124Z,14.46
2023-01-01T08:30:47.337Z,14.49
2023-01-01T08:33:14.313Z,14.51
2023-01-01T08:35:45.605Z,14.51
2023-01-01T08:38:16.025Z,14.57
2023-01-01T08:40:43.157Z,14.58
2023-01-01T08:43:10.138Z,14.60
2023-01-01T08:45:37.268Z,14.62
2023-01-01T08:48:04.659Z,14.65
2023-01-01T08:50:31.850Z,14.67
2023-01-01T08:52:59.730Z,14.69
2023-01-01T08:55:27.283Z,14.71
2023-01-01T08:57:54.287Z,14.76
2023-01-01T09:00:21.854Z,14.80
2023-01-01T09:02:49.123Z,14.85
2023-01-01T09:05:16.675Z,14.88
2023-01-01T09:07:43.675Z,14.92
2023-01-01T09:10:10.994Z,14.95
2023-01-01T09:12:37.971Z,15.01
2023-01-01T09:15:06.318Z,15.06
2023-01-01T09:17:33.431Z,15.11
2023-01-01T09:20:00.546Z,15.15
2023-01-01T09:22:27.775Z,15.20
2023-01-01T09:24:55.055Z,15.25
2023-01-01T09:27:22.042Z,15.28
2023-01-01T09:29:49.301Z,15.33
2023-01-01T09:32:16.335Z,15.34
2023-01-01T09:34:48.715Z,15.34
2023-01-01T09:37:19.263Z,15.45
2023-01-01T09:39:46.672Z,15.50
2023-01-01T09:42:27.125Z,15.56
2023-01-01T09:45:23.324Z,15.68
2023-01-01T09:47:58.067Z,15.73
2023-01-01T09:50:33.940Z,15.79
2023-01-01T09:53:13.880Z,15.85
2023-01-01T09:56:02.012Z,15.89
2023-01-01T09:58:36.725Z,15.93
2023-01-01T10:01:29.863Z,15.95
2023-01-01T10:04:26.608Z,15.98
2023-01-01T10:07:27.572Z,15.99
2023-01-01T10:10:14.314Z,16.07
2023-01-01T10:13:04.452Z,16.10
2023-01-01T10:15:42.309Z,16.05
2023-01-01T10:18:20.536Z,16.14
2023-01-01T10:21:24.590Z,16.15
2023-01-01T10:24:04.585Z,16.18
2023-01-01T10:26:37.681Z,16.22
2023-01-01T10:29:22.336Z,16.20
2023-01-01T10:31:49.482Z,16.24
2023-01-01T10:34:24.478Z,16.26
2023-01-01T10:36:57.334Z,16.29
2023-01-01T10:39:26.791Z,16.32
2023-01-01T10:41:54.997Z,16.32
2023-01-01T10:44:30.643Z,16.33
2023-01-01T10:47:02.782Z,16.37
2023-01-01T10:49:30.070Z,16.38
2023-01-01T10:51:57.193Z,16.42
2023-01-01T10:54:40.243Z,16.44
2023-01-01T10:57:30.106Z,16.41
2023-01-01T11:00:27.182Z,16.46
2023-01-01T11:03:19.094Z,16.47
2023-01-01T11:06:20.939Z,16.48
2023-01-01T11:08:57.820Z,16.50
2023-01-01T11:11:31.196Z,16.50
2023-01-01T11:14:04.555Z,16.50
2023-01-01T11:16:32.698Z,16.50
2023-01-01T11:19:05.049Z,16.53
2023-01-01T11:21:34.734Z,16.53
2023-01-01T11:24:30.119Z,16.48
2023-01-01T11:27:22.504Z,16.49
2023-01-01T11:29:51.458Z,16.46
2023-01-01T11:32:33.983Z,16.46
2023-01-01T11:35:06.510Z,16.43
2023-01-01T11:37:39.201Z,16.45
2023-01-01T11:40:20.178Z,16.44
2023-01-01T11:42:58.319Z,16.47
2023-01-01T11:45:38.009Z,16.48
2023-01-01T11:48:36.340Z,16.46
2023-01-01T11:51:11.572Z,16.47
2023-01-01T11:53:41.930Z,16.49
2023-01-01T11:56:21.629Z,16.45
2023-01-01T11:59:09.249Z,16.51
2023-01-01T12:01:49.712Z,16.53
2023-01-01T12:04:23.933Z,16.55
2023-01-01T12:07:23.251Z,16.60
2023-01-01T12:10:04.964Z,16.60
2023-01-01T12:12:44.051Z,16.63
2023-01-01T12:15:18.669Z,16.64
2023-01-01T12:18:27.741Z,16.67
2023-01-01T12:21:04.286Z,16.68
2023-01-01T12:23:35.882Z,16.69
2023-01-01T12:26:09.095Z,16.70
2023-01-01T12:28:47.409Z,16.72
2023-01-01T12:31:23.535Z,16.73
2023-01-01T12:34:14.695Z,16.69
2023-01-01T12:37:13.382Z,16.61
2023-01-01T12:40:28.082Z,16.71
2023-01-01T12:43:34.394Z,16.77
2023-01-01T12:46:27.259Z,16.79
2023-01-01T12:49:18.901Z,16.80
2023-01-01T12:52:14.755Z,16.81
2023-01-01T12:55:39.681Z,16.81
2023-01-01T12:58:28.314Z,16.84
2023-01-01T13:01:08.885Z,16.87
2023-01-01T13:04:12.979Z,16.86
2023-01-01T13:06:45.928Z,16.88
2023-01-01T13:09:29.426Z,16.88
2023-01-01T13:12:09.660Z,16.88
2023-01-01T13:14:46.541Z,16.88
2023-01-01T13:17:27.908Z,16.87
2023-01-01T13:20:24.835Z,16.88
2023-01-01T13:22:52.300Z,16.93
2023-01-01T13:25:23.832Z,16.96
2023-01-01T13:27:57.285Z,16.97
2023-01-01T13:30:39.761Z,16.98
2023-01-01T13:33:25.498Z,16.97
2023-01-01T13:36:14.221Z,16.91
2023-01-01T13:38:58.723Z,16.94
2023-01-01T13:41:25.620Z,16.98
2023-01-01T13:44:01.689Z,16.96
2023-01-01T13:46:44.075Z,16.92
2023-01-01T13:49:51.971Z,16.92
2023-01-01T13:52:52.458Z,16.93
2023-01-01T13:55:54.118Z,16.93
2023-01-01T13:58:59.532Z,16.89
2023-01-01T14:02:21.153Z,16.92
2023-01-01T14:04:55.398Z,16.88
2023-01-01T14:08:01.139Z,16.91
2023-01-01T14:10:36.986Z,16.89
2023-01-01T14:13:07.458Z,16.90
2023-01-01T14:15:39.769Z,16.88
2023-01-01T14:18:14.632Z,16.89
2023-01-01T14:20:45.195Z,16.87
2023-01-01T14:23:39.007Z,16.83
2023-01-01T14:26:13.749Z,16.85
2023-01-01T14:28:42.073Z,16.86
2023-01-01T14:31:24.375Z,16.85
2023-01-01T14:33:51.770Z,16.83
2023-01-01T14:36:31.335Z,16.83
2023-01-01T14:39:03.788Z,16.79
2023-01-01T14:41:39.997Z,16.79
2023-01-01T14:44:15.698Z,16.79
2023-01-01T14:46:48.626Z,16.82
2023-01-01T14:49:23.170Z,16.80
2023-01-01T14:52:03.640Z,16.77
2023-01-01T14:54:38.116Z,16.75
2023-01-01T14:57:32.306Z,16.77
2023-01-01T15:00:00.340Z,16.76
2023-01-01T15:02:33.137Z,16.74
2023-01-01T15:05:21.189Z,16.73
2023-01-01T15:07:58.200Z,16.68
2023-01-01T15:10:31.445Z,16.67
2023-01-01T15:12:58.857Z,16.68
2023-01-01T15:15:45.413Z,16.68
2023-01-01T15:18:38.480Z,16.66
2023-01-01T15:21:41.360Z,16.63
2023-01-01T15:24:23.972Z,16.56
2023-01-01T15:27:01.683Z,16.54
2023-01-01T15:29:32.020Z,16.53
2023-01-01T15:32:07.251Z,16.48
2023-01-01T15:34:42.882Z,16.45
2023-01-01T15:37:35.426Z,16.44
2023-01-01T15:40:24.828Z,16.42
2023-01-01T15:42:54.927Z,16.39
2023-01-01T15:45:35.043Z,16.38
2023-01-01T15:48:05.056Z,16.35
2023-01-01T15:51:04.578Z,16.38
2023-01-01T15:53:46.116Z,16.35
2023-01-01T15:56:15.385Z,16.36
2023-01-01T15:58:48.253Z,16.34
2023-01-01T16:01:23.703Z,16.33
2023-01-01T16:04:03.140Z,16.32
2023-01-01T16:06:30.783Z,16.32
2023-01-01T16:08:58.166Z,16.32
2023-01-01T16:11:25.166Z,16.28
2023-01-01T16:13:52.316Z,16.27
2023-01-01T16:16:30.193Z,16.26
2023-01-01T16:18:58.335Z,16.25
2023-01-01T16:21:29.314Z,16.23
2023-01-01T16:23:56.619Z,16.19
2023-01-01T16:26:23.564Z,16.18
2023-01-01T16:28:51.586Z,16.17
2023-01-01T16:31:25.670Z,16.15
2023-01-01T16:33:57.018Z,16.12
2023-01-01T16:36:24.270Z,16.10
2023-01-01T16:38:51.460Z,16.07
2023-01-01T16:41:19.127Z,16.04
2023-01-01T16:43:47.923Z,16.02
2023-01-01T16:46:15.776Z,16.00
2023-01-01T16:48:43.950Z,15.95
2023-01-01T16:51:20.613Z,15.91
2023-01-01T16:53:48.546Z,15.90
2023-01-01T16:56:15.948Z,15.88
2023-01-01T16:58:54.076Z,15.86
2023-01-01T17:01:25.316Z,15.81
2023-01-01T17:03:52.769Z,15.79
2023-01-01T17:06:21.417Z,15.76
2023-01-01T17:08:48.653Z,15.71
2023-01-01T17:11:17.829Z,15.69
2023-01-01T17:13:48.019Z,15.65
2023-01-01T17:16:23.487Z,15.63
2023-01-01T17:21:40.601Z,15.58
2023-01-01T17:24:08.434Z,15.56
2023-01-01T17:26:35.507Z,15.55
2023-01-01T17:29:03.441Z,15.54
2023-01-01T17:31:31.170Z,15.52
2023-01-01T17:33:59.742Z,15.51
2023-01-01T17:36:29.305Z,15.48
2023-01-01T17:38:57.353Z,15.45
2023-01-01T17:41:24.391Z,15.42
2023-01-01T17:43:52.084Z,15.41
2023-01-01T17:46:34.059Z,15.39
2023-01-01T17:49:03.969Z,15.38
2023-01-01T17:51:31.254Z,15.37
2023-01-01T17:53:58.591Z,15.35
2023-01-01T17:56:25.844Z,15.33
2023-01-01T17:58:54.316Z,15.30
2023-01-01T18:01:24.662Z,15.30
2023-01-01T18:03:55.882Z,15.26
2023-01-01T18:06:23.430Z,15.24
2023-01-01T18:09:02.602Z,15.18
2023-01-01T18:11:31.995Z,15.16
2023-01-01T18:14:03.310Z,15.17
2023-01-01T18:16:34.102Z,15.16
2023-01-01T18:19:04.048Z,15.09
2023-01-01T18:21:33.039Z,15.10
2023-01-01T18:24:01.031Z,15.06
2023-01-01T18:26:31.122Z,15.03
2023-01-01T18:29:01.456Z,15.01
2023-01-01T18:31:32.689Z,14.97
2023-01-01T18:34:04.514Z,15.00
2023-01-01T18:36:34.736Z,15.00
2023-01-01T18:39:23.878Z,14.92
2023-01-01T18:42:02.242Z,14.86
2023-01-01T18:44:32.593Z,14.83
2023-01-01T18:47:14.216Z,14.84
2023-01-01T18:49:53.552Z,14.87
2023-01-01T18:52:29.035Z,14.86
2023-01-01T18:55:10.846Z,14.87
2023-01-01T18:57:39.838Z,14.89
2023-01-01T19:00:22.838Z,14.87
2023-01-01T19:03:02.631Z,14.85
2023-01-01T19:05:34.637Z,14.84
2023-01-01T19:08:07.574Z,14.82
2023-01-01T19:10:47.625Z,14.73
2023-01-01T19:13:32.745Z,14.64
2023-01-01T19:16:12.781Z,14.61
2023-01-01T19:18:45.766Z,14.64
2023-01-01T19:21:12.986Z,14.68
2023-01-01T19:23:57.384Z,14.62
2023-01-01T19:26:40.134Z,14.59
2023-01-01T19:29:24.278Z,14.60
2023-01-01T19:31:55.474Z,14.67
2023-01-01T19:34:25.042Z,14.71
2023-01-01T19:36:52.595Z,14.71
2023-01-01T19:39:19.605Z,14.70
2023-01-01T19:41:47.631Z,14.69
2023-01-01T19:44:18.499Z,14.67
2023-01-01T19:46:48.758Z,14.64
2023-01-01T19:49:15.796Z,14.62
2023-01-01T19:51:43.940Z,14.61
2023-01-01T19:54:10.913Z,14.59
2023-01-01T19:56:38.202Z,14.59
2023-01-01T19:59:05.210Z,14.54
2023-01-01T20:01:32.519Z,14.55
2023-01-01T20:03:59.757Z,14.56
2023-01-01T20:06:27.722Z,14.56
2023-01-01T20:08:54.953Z,14.55
2023-01-01T20:11:22.663Z,14.55
2023-01-01T20:13:49.580Z,14.55
2023-01-01T20:16:16.869Z,14.55
2023-01-01T20:18:43.854Z,14.54
2023-01-01T20:21:29.530Z,14.53
2023-01-01T20:23:56.416Z,14.52
2023-01-01T20:26:26.420Z,14.50
2023-01-01T20:29:12.473Z,14.48
2023-01-01T20:31:40.342Z,14.46
2023-01-01T20:34:07.406Z,14.45
2023-01-01T20:37:03.655Z,14.45
2023-01-01T20:39:30.849Z,14.45
2023-01-01T20:41:58.378Z,14.46
2023-01-01T20:44:25.994Z,14.45
2023-01-01T20:46:53.363Z,14.44
2023-01-01T20:49:21.670Z,14.42
2023-01-01T20:51:52.558Z,14.41
2023-01-01T20:54:23.764Z,14.41
2023-01-01T20:56:51.601Z,14.38
2023-01-01T20:59:37.065Z,14.34
2023-01-01T21:02:11.573Z,14.30
2023-01-01T21:04:40.113Z,14.23
2023-01-01T21:07:10.818Z,14.14
2023-01-01T21:09:40.533Z,14.13
2023-01-01T21:12:09.355Z,14.17
2023-01-01T21:14:36.683Z,14.18
2023-01-01T21:17:22.897Z,14.18
2023-01-01T21:19:54.059Z,14.17
2023-01-01T21:22:21.486Z,14.19
2023-01-01T21:24:54.067Z,14.12
2023-01-01T21:27:33.330Z,14.06
2023-01-01T21:30:01.287Z,14.03
2023-01-01T21:32:43.498Z,13.98
2023-01-01T21:35:34.149Z,13.91
2023-01-01T21:38:16.664Z,13.94
2023-01-01T21:41:00.112Z,13.92
2023-01-01T21:43:39.086Z,13.94
2023-01-01T21:46:05.960Z,13.95
2023-01-01T21:49:01.970Z,13.97
2023-01-01T21:51:33.543Z,13.97
2023-01-01T21:54:22.291Z,13.96
2023-01-01T21:56:58.982Z,13.96
2023-01-01T21:59:38.095Z,13.97
2023-01-01T22:02:07.985Z,13.94
2023-01-01T22:04:47.431Z,13.89
2023-01-01T22:08:02.870Z,13.76
2023-01-01T22:10:36.211Z,13.59
2023-01-01T22:13:14.864Z,13.53
2023-01-01T22:15:42.819Z,13.50
2023-01-01T22:18:09.620Z,13.37
2023-01-01T22:20:40.541Z,13.33
2023-01-01T22:23:24.209Z,13.41
2023-01-01T22:25:53.165Z,13.45
2023-01-01T22:28:26.134Z,13.45
2023-01-01T22:30:59.496Z,13.45
2023-01-01T22:33:38.101Z,13.43
2023-01-01T22:36:15.632Z,13.45
2023-01-01T22:38:43.281Z,13.38
2023-01-01T22:41:12.616Z,13.29
2023-01-01T22:43:43.873Z,13.29
2023-01-01T22:46:17.671Z,13.34
2023-01-01T22:48:44.726Z,13.32
2023-01-01T22:51:22.802Z,13.33
2023-01-01T22:53:49.749Z,13.28
2023-01-01T22:56:17.224Z,13.24
2023-01-01T22:58:44.284Z,13.27
2023-01-01T23:01:11.633Z,13.29
2023-01-01T23:03:38.740Z,13.17
2023-01-01T23:06:06.857Z,13.10
2023-01-01T23:08:33.788Z,13.14
2023-01-01T23:11:02.554Z,13.20
2023-01-01T23:14:07.894Z,13.19
2023-01-01T23:16:36.187Z,13.18
2023-01-01T23:19:04.860Z,13.12
2023-01-01T23:21:34.971Z,13.10
2023-01-01T23:24:08.858Z,13.10
2023-01-01T23:26:37.620Z,13.15
2023-01-01T23:29:06.309Z,13.15
2023-01-01T23:31:34.754Z,13.17
2023-01-01T23:34:02.352Z,13.16
2023-01-01T23:36:29.944Z,13.16
2023-01-01T23:38:56.947Z,13.07
2023-01-01T23:41:24.255Z,12.91
2023-01-01T23:43:51.370Z,12.97
2023-01-01T23:46:19.501Z,13.07
2023-01-01T23:48:48.537Z,13.02
2023-01-01T23:51:17.486Z,13.10
2023-01-01T23:53:44.819Z,13.12
2023-01-01T23:56:12.573Z,13.07
2023-01-01T23:58:39.483Z,12.93
